createdAt,value
2024-01-31T00:01:22.270Z,-2.20
2024-01-31T00:04:24.568Z,-2.22
2024-01-31T00:07:26.841Z,-2.14
2024-01-31T00:10:29.431Z,-2.19
2024-01-31T00:13:31.900Z,-2.17
2024-01-31T00:16:34.737Z,-2.25
2024-01-31T00:19:37.108Z,-2.22
2024-01-31T00:22:40.109Z,-2.18
2024-01-31T00:25:42.477Z,-2.05
2024-01-31T00:28:44.734Z,-2.21
2024-01-31T00:31:47.007Z,-2.26
2024-01-31T00:34:49.320Z,-2.17
2024-01-31T00:37:51.959Z,-2.23
2024-01-31T00:40:55.563Z,-2.28
2024-01-31T00:43:57.760Z,-2.22
2024-01-31T00:47:00.040Z,-2.35
2024-01-31T00:50:02.310Z,-2.39
2024-01-31T00:53:04.624Z,-2.43
2024-01-31T00:56:07.123Z,-2.45
2024-01-31T00:59:09.339Z,-2.29
2024-01-31T01:02:11.584Z,-2.52
2024-01-31T01:05:13.826Z,-2.57
2024-01-31T01:08:15.988Z,-2.55
2024-01-31T01:11:19.019Z,-2.55
2024-01-31T01:14:21.217Z,-2.54
2024-01-31T01:17:23.350Z,-2.73
2024-01-31T01:20:25.566Z,-2.51
2024-01-31T01:23:27.757Z,-2.50
2024-01-31T01:26:29.942Z,-2.55
2024-01-31T01:29:32.777Z,-2.73
2024-01-31T01:32:35.016Z,-2.67
2024-01-31T01:35:37.204Z,-2.69
2024-01-31T01:38:39.332Z,-2.76
2024-01-31T01:41:41.486Z,-2.74
2024-01-31T01:44:46.100Z,-2.63
2024-01-31T01:47:52.012Z,-2.65
2024-01-31T01:50:54.796Z,-2.66
2024-01-31T01:53:57.173Z,-2.52
2024-01-31T01:57:00.148Z,-2.54
2024-01-31T02:00:03.372Z,-2.73
2024-01-31T02:03:06.532Z,-2.65
2024-01-31T02:06:08.859Z,-2.82
2024-01-31T02:09:11.405Z,-2.95
2024-01-31T02:12:13.615Z,-3.09
2024-01-31T02:15:15.783Z,-3.05
2024-01-31T02:18:18.017Z,-3.22
2024-01-31T02:21:20.485Z,-3.06
2024-01-31T02:24:22.629Z,-3.23
2024-01-31T02:27:24.835Z,-3.20
2024-01-31T02:30:27.016Z,-3.20
2024-01-31T02:33:29.215Z,-3.20
2024-01-31T02:36:31.373Z,-3.21
2024-01-31T02:39:34.718Z,-3.31
2024-01-31T02:42:37.077Z,-3.38
2024-01-31T02:45:39.238Z,-3.41
2024-01-31T02:48:41.461Z,-3.33
2024-01-31T02:51:43.655Z,-3.34
2024-01-31T02:54:45.880Z,-3.28
2024-01-31T02:57:48.183Z,-3.33
2024-01-31T03:00:50.428Z,-3.24
2024-01-31T03:03:52.608Z,-3.26
2024-01-31T03:06:54.825Z,-3.45
2024-01-31T03:09:57.002Z,-3.54
2024-01-31T03:12:59.423Z,-3.48
2024-01-31T03:16:01.617Z,-3.53
2024-01-31T03:19:04.198Z,-3.50
2024-01-31T03:22:06.754Z,-3.46
2024-01-31T03:25:09.211Z,-3.42
2024-01-31T03:28:11.414Z,-3.46
2024-01-31T03:31:13.672Z,-3.57
2024-01-31T03:34:16.070Z,-3.60
2024-01-31T03:37:18.349Z,-3.50
2024-01-31T03:40:20.707Z,-3.43
2024-01-31T03:43:22.991Z,-3.66
2024-01-31T03:46:26.261Z,-3.63
2024-01-31T03:49:28.506Z,-3.52
2024-01-31T03:52:31.744Z,-3.65
2024-01-31T03:55:34.648Z,-3.55
2024-01-31T03:58:37.096Z,-3.45
2024-01-31T04:01:39.422Z,-3.36
2024-01-31T04:04:41.691Z,-3.38
2024-01-31T04:07:46.475Z,-3.55
2024-01-31T04:10:49.410Z,-3.61
2024-01-31T04:13:51.619Z,-3.54
2024-01-31T04:16:53.766Z,-3.44
2024-01-31T04:19:56.022Z,-3.69
2024-01-31T04:22:58.287Z,-3.71
2024-01-31T04:26:02.871Z,-3.71
2024-01-31T04:29:05.156Z,-3.88
2024-01-31T04:32:08.120Z,-3.77
2024-01-31T04:35:10.965Z,-3.71
2024-01-31T04:38:13.113Z,-3.60
2024-01-31T04:41:15.351Z,-3.61
2024-01-31T04:44:17.569Z,-3.63
2024-01-31T04:47:19.836Z,-3.64
2024-01-31T04:50:22.120Z,-3.83
2024-01-31T04:53:24.453Z,-4.02
2024-01-31T04:56:26.664Z,-3.87
2024-01-31T04:59:28.945Z,-4.05
2024-01-31T05:02:31.120Z,-3.98
2024-01-31T05:05:33.528Z,-3.87
2024-01-31T05:08:35.818Z,-3.90
2024-01-31T05:11:38.063Z,-4.06
2024-01-31T05:14:40.590Z,-3.97
2024-01-31T05:17:42.809Z,-3.90
2024-01-31T05:20:44.956Z,-3.92
2024-01-31T05:23:47.134Z,-4.22
2024-01-31T05:26:49.617Z,-4.20
2024-01-31T05:29:51.816Z,-4.05
2024-01-31T05:32:54.199Z,-3.98
2024-01-31T05:35:59.042Z,-3.93
2024-01-31T05:39:01.215Z,-4.00
2024-01-31T05:42:03.527Z,-3.98
2024-01-31T05:45:05.989Z,-3.80
2024-01-31T05:48:08.923Z,-3.87
2024-01-31T05:51:11.077Z,-3.76
2024-01-31T05:54:13.344Z,-3.81
2024-01-31T05:57:15.570Z,-3.68
2024-01-31T06:00:18.106Z,-3.79
2024-01-31T06:03:20.743Z,-4.00
2024-01-31T06:06:22.971Z,-4.02
2024-01-31T06:09:25.252Z,-4.05
2024-01-31T06:12:27.463Z,-3.93
2024-01-31T06:15:29.605Z,-3.91
2024-01-31T06:18:35.561Z,-3.87
2024-01-31T06:21:37.963Z,-3.79
2024-01-31T06:24:40.154Z,-3.78
2024-01-31T06:27:42.370Z,-3.87
2024-01-31T06:30:46.084Z,-3.87
2024-01-31T06:33:48.366Z,-3.90
2024-01-31T06:36:50.511Z,-3.84
2024-01-31T06:39:52.774Z,-3.65
2024-01-31T06:42:55.266Z,-3.94
2024-01-31T06:45:57.737Z,-3.96
2024-01-31T06:49:00.407Z,-3.96
2024-01-31T06:52:03.933Z,-3.76
2024-01-31T06:55:06.238Z,-3.60
2024-01-31T06:58:08.466Z,-3.57
2024-01-31T07:01:10.755Z,-3.50
2024-01-31T07:04:13.084Z,-3.33
2024-01-31T07:07:15.413Z,-3.39
2024-01-31T07:10:17.962Z,-3.28
2024-01-31T07:13:20.256Z,-3.21
2024-01-31T07:16:22.478Z,-3.11
2024-01-31T07:19:24.822Z,-2.94
2024-01-31T07:22:27.048Z,-2.61
2024-01-31T07:25:29.228Z,-2.42
2024-01-31T07:28:35.248Z,-2.23
2024-01-31T07:31:37.495Z,-2.18
2024-01-31T07:34:40.014Z,-2.06
2024-01-31T07:37:42.911Z,-1.96
2024-01-31T07:40:45.287Z,-1.89
2024-01-31T07:43:47.523Z,-1.79
2024-01-31T07:46:49.879Z,-1.47
2024-01-31T07:49:52.365Z,-1.33
2024-01-31T07:52:54.672Z,-1.10
2024-01-31T07:55:57.384Z,-0.98
2024-01-31T07:58:59.669Z,-0.75
2024-01-31T08:02:02.062Z,-0.46
2024-01-31T08:05:04.850Z,-0.12
2024-01-31T08:08:07.390Z,0.05
2024-01-31T08:11:09.576Z,0.15
2024-01-31T08:14:12.134Z,0.24
2024-01-31T08:17:14.415Z,0.41
2024-01-31T08:20:16.842Z,0.64
2024-01-31T08:23:19.062Z,0.75
2024-01-31T08:26:23.443Z,0.77
2024-01-31T08:29:27.734Z,0.76
2024-01-31T08:32:31.404Z,0.90
2024-01-31T08:35:33.764Z,0.99
2024-01-31T08:38:37.301Z,1.06
2024-01-31T08:41:39.686Z,1.29
2024-01-31T08:44:42.036Z,1.45
2024-01-31T08:47:45.981Z,1.54
2024-01-31T08:50:49.223Z,1.74
2024-01-31T08:53:51.371Z,1.77
2024-01-31T08:56:53.732Z,1.79
2024-01-31T08:59:55.980Z,1.73
2024-01-31T09:02:58.269Z,1.72
2024-01-31T09:06:03.469Z,1.85
2024-01-31T09:09:07.428Z,2.12
2024-01-31T09:12:09.796Z,2.14
2024-01-31T09:15:14.247Z,2.27
2024-01-31T09:18:16.526Z,2.70
2024-01-31T09:21:22.210Z,2.44
2024-01-31T09:24:24.549Z,2.37
2024-01-31T09:27:26.845Z,2.28
2024-01-31T09:30:29.143Z,2.48
2024-01-31T09:33:31.473Z,2.40
2024-01-31T09:36:33.773Z,2.55
2024-01-31T09:39:36.054Z,2.64
2024-01-31T09:42:38.317Z,2.92
2024-01-31T09:45:42.076Z,2.74
2024-01-31T09:48:44.784Z,2.69
2024-01-31T09:51:47.038Z,2.57
2024-01-31T09:54:51.075Z,2.69
2024-01-31T09:57:53.317Z,2.65
2024-01-31T10:00:58.800Z,2.62
2024-01-31T10:04:02.877Z,2.75
2024-01-31T10:07:08.425Z,2.91
2024-01-31T10:10:10.934Z,2.84
2024-01-31T10:13:13.315Z,2.88
2024-01-31T10:16:16.674Z,3.02
2024-01-31T10:19:19.794Z,2.96
2024-01-31T10:22:23.354Z,3.03
2024-01-31T10:25:26.641Z,3.14
2024-01-31T10:28:30.007Z,3.26
2024-01-31T10:31:32.480Z,3.19
2024-01-31T10:34:46.537Z,3.49
2024-01-31T10:38:01.172Z,3.44
2024-01-31T10:41:07.704Z,3.13
2024-01-31T10:44:14.530Z,3.28
2024-01-31T10:47:16.779Z,3.35
2024-01-31T10:50:19.192Z,3.38
2024-01-31T10:53:23.130Z,3.51
2024-01-31T10:56:26.090Z,3.45
2024-01-31T10:59:28.449Z,3.58
2024-01-31T11:02:32.522Z,3.60
2024-01-31T11:05:34.967Z,3.58
2024-01-31T11:08:40.823Z,3.48
2024-01-31T11:11:43.052Z,3.51
2024-01-31T11:14:47.301Z,3.32
2024-01-31T11:18:16.783Z,3.45
2024-01-31T11:21:19.545Z,3.62
2024-01-31T11:24:24.443Z,3.71
2024-01-31T11:27:26.739Z,3.80
2024-01-31T11:30:29.647Z,3.90
2024-01-31T11:33:32.741Z,3.88
2024-01-31T11:36:35.132Z,3.92
2024-01-31T11:39:37.915Z,4.10
2024-01-31T11:42:40.734Z,4.02
2024-01-31T11:45:44.205Z,4.10
2024-01-31T11:48:46.526Z,3.95
2024-01-31T11:51:48.788Z,4.05
2024-01-31T11:54:51.145Z,4.07
2024-01-31T11:57:53.803Z,4.12
2024-01-31T12:00:56.340Z,4.13
2024-01-31T12:03:58.672Z,4.31
2024-01-31T12:07:05.894Z,4.34
2024-01-31T12:10:09.171Z,4.39
2024-01-31T12:13:11.390Z,4.30
2024-01-31T12:16:14.125Z,4.19
2024-01-31T12:19:19.798Z,4.15
2024-01-31T12:22:22.288Z,4.14
2024-01-31T12:25:25.542Z,4.18
2024-01-31T12:28:28.932Z,4.29
2024-01-31T12:31:31.157Z,4.31
2024-01-31T12:34:33.436Z,4.40
2024-01-31T12:37:35.712Z,4.37
2024-01-31T12:40:38.457Z,4.48
2024-01-31T12:43:41.114Z,4.45
2024-01-31T12:46:43.980Z,4.43
2024-01-31T12:49:46.197Z,4.57
2024-01-31T12:52:48.795Z,4.67
2024-01-31T12:55:51.340Z,4.72
2024-01-31T12:58:54.954Z,4.64
2024-01-31T13:01:57.226Z,4.62
2024-01-31T13:04:59.390Z,4.67
2024-01-31T13:08:02.415Z,4.54
2024-01-31T13:11:05.385Z,4.47
2024-01-31T13:14:07.873Z,4.43
2024-01-31T13:17:10.162Z,4.35
2024-01-31T13:20:12.776Z,4.47
2024-01-31T13:23:16.459Z,4.40
2024-01-31T13:26:18.707Z,4.38
2024-01-31T13:29:22.709Z,4.34
2024-01-31T13:32:24.988Z,4.50
2024-01-31T13:35:27.221Z,4.48
2024-01-31T13:38:29.494Z,4.52
2024-01-31T13:41:31.927Z,4.51
2024-01-31T13:44:35.656Z,4.47
2024-01-31T13:47:38.453Z,4.44
2024-01-31T13:50:40.866Z,4.56
2024-01-31T13:53:43.238Z,4.60
2024-01-31T13:56:45.523Z,4.51
2024-01-31T13:59:48.135Z,4.40
2024-01-31T14:02:50.827Z,4.39
2024-01-31T14:05:53.341Z,4.30
2024-01-31T14:08:55.647Z,4.33
2024-01-31T14:11:58.285Z,4.27
2024-01-31T14:15:01.379Z,4.22
2024-01-31T14:18:04.315Z,4.15
2024-01-31T14:21:08.014Z,4.13
2024-01-31T14:24:16.085Z,4.13
2024-01-31T14:27:20.048Z,4.15
2024-01-31T14:30:22.249Z,4.01
2024-01-31T14:33:24.642Z,3.97
2024-01-31T14:36:27.100Z,3.95
2024-01-31T14:39:29.215Z,3.87
2024-01-31T14:42:31.422Z,3.87
2024-01-31T14:45:33.570Z,3.78
2024-01-31T14:48:36.010Z,3.79
2024-01-31T14:51:41.235Z,3.72
2024-01-31T14:54:43.498Z,3.64
2024-01-31T14:57:45.999Z,3.78
2024-01-31T15:00:48.612Z,3.69
2024-01-31T15:03:50.963Z,3.70
2024-01-31T15:06:53.906Z,3.65
2024-01-31T15:09:56.187Z,3.70
2024-01-31T15:12:58.375Z,3.68
2024-01-31T15:16:00.588Z,3.65
2024-01-31T15:19:03.583Z,3.57
2024-01-31T15:22:05.974Z,3.49
2024-01-31T15:25:08.528Z,3.44
2024-01-31T15:28:10.819Z,3.36
2024-01-31T15:31:13.135Z,3.36
2024-01-31T15:34:15.593Z,3.39
2024-01-31T15:37:17.858Z,3.28
2024-01-31T15:40:21.504Z,3.26
2024-01-31T15:43:23.742Z,3.26
2024-01-31T15:46:28.176Z,3.23
2024-01-31T15:49:31.625Z,3.21
2024-01-31T15:52:33.932Z,3.19
2024-01-31T15:55:38.624Z,3.16
2024-01-31T15:58:40.912Z,3.11
2024-01-31T16:01:43.529Z,3.06
2024-01-31T16:04:45.790Z,2.97
2024-01-31T16:07:48.113Z,2.97
2024-01-31T16:10:50.428Z,2.94
2024-01-31T16:13:52.671Z,2.97
2024-01-31T16:16:54.927Z,2.91
2024-01-31T16:19:57.438Z,2.93
2024-01-31T16:22:59.798Z,3.03
2024-01-31T16:26:03.204Z,3.03
2024-01-31T16:29:05.451Z,2.94
2024-01-31T16:32:07.750Z,2.90
2024-01-31T16:35:09.978Z,2.88
2024-01-31T16:38:12.933Z,2.81
2024-01-31T16:41:25.467Z,2.68
2024-01-31T16:44:28.576Z,2.67
2024-01-31T16:47:30.795Z,2.51
2024-01-31T16:50:33.300Z,2.42
2024-01-31T16:53:35.794Z,2.27
2024-01-31T16:56:38.025Z,2.21
2024-01-31T16:59:40.677Z,2.16
2024-01-31T17:02:42.938Z,2.17
2024-01-31T17:05:45.718Z,1.94
2024-01-31T17:08:48.734Z,1.84
2024-01-31T17:11:53.246Z,1.70
2024-01-31T17:14:56.080Z,1.43
2024-01-31T17:17:58.798Z,1.43
2024-01-31T17:21:01.675Z,1.50
2024-01-31T17:24:05.134Z,1.36
2024-01-31T17:27:08.672Z,1.30
2024-01-31T17:30:11.837Z,1.15
2024-01-31T17:33:14.711Z,0.96
2024-01-31T17:36:19.164Z,0.89
2024-01-31T17:39:22.012Z,0.85
2024-01-31T17:42:28.248Z,0.95
2024-01-31T17:45:33.934Z,0.71
2024-01-31T17:48:36.542Z,0.59
2024-01-31T17:51:42.265Z,0.69
2024-01-31T17:54:44.862Z,0.74
2024-01-31T17:57:48.521Z,0.80
2024-01-31T18:00:51.345Z,0.75
2024-01-31T18:03:54.229Z,0.64
2024-01-31T18:06:56.842Z,0.55
2024-01-31T18:09:59.629Z,0.62
2024-01-31T18:13:01.991Z,0.71
2024-01-31T18:16:04.556Z,0.84
2024-01-31T18:19:07.243Z,0.75
2024-01-31T18:22:09.542Z,0.77
2024-01-31T18:25:12.103Z,0.67
2024-01-31T18:28:14.482Z,0.82
2024-01-31T18:31:20.454Z,0.72
2024-01-31T18:34:23.227Z,0.70
2024-01-31T18:37:25.907Z,0.72
2024-01-31T18:40:28.706Z,0.64
2024-01-31T18:43:31.376Z,0.66
2024-01-31T18:46:33.979Z,0.71
2024-01-31T18:49:36.631Z,0.67
2024-01-31T18:52:39.472Z,0.61
2024-01-31T18:55:42.479Z,0.53
2024-01-31T18:58:46.144Z,0.62
2024-01-31T19:01:48.605Z,0.73
2024-01-31T19:04:56.210Z,0.83
2024-01-31T19:08:05.194Z,0.77
2024-01-31T19:11:07.465Z,0.70
2024-01-31T19:14:28.927Z,0.75
2024-01-31T19:17:36.403Z,0.76
2024-01-31T19:20:45.410Z,0.63
2024-01-31T19:23:48.811Z,0.50
2024-01-31T19:26:51.384Z,0.39
2024-01-31T19:29:54.465Z,0.25
2024-01-31T19:32:57.223Z,0.29
2024-01-31T19:35:59.953Z,0.40
2024-01-31T19:39:02.641Z,0.27
2024-01-31T19:42:05.416Z,0.38
2024-01-31T19:45:09.339Z,0.32
2024-01-31T19:48:12.208Z,0.24
2024-01-31T19:51:14.520Z,0.20
2024-01-31T19:54:16.850Z,-0.01
2024-01-31T19:57:19.126Z,0.11
2024-01-31T20:00:21.704Z,0.17
2024-01-31T20:03:24.123Z,-0.15
2024-01-31T20:06:26.956Z,0.00
2024-01-31T20:09:30.796Z,-0.17
2024-01-31T20:12:33.590Z,-0.22
2024-01-31T20:15:35.822Z,-0.15
2024-01-31T20:18:39.599Z,-0.17
2024-01-31T20:21:42.147Z,-0.14
2024-01-31T20:24:44.772Z,-0.14
2024-01-31T20:27:47.324Z,-0.08
2024-01-31T20:30:49.613Z,0.08
2024-01-31T20:33:52.102Z,0.27
2024-01-31T20:36:54.447Z,0.34
2024-01-31T20:39:56.674Z,0.13
2024-01-31T20:42:59.034Z,0.19
2024-01-31T20:46:01.270Z,0.15
2024-01-31T20:49:03.694Z,0.03
2024-01-31T20:52:06.426Z,-0.04
2024-01-31T20:55:08.899Z,0.12
2024-01-31T20:58:11.053Z,0.06
2024-01-31T21:01:13.342Z,0.09
2024-01-31T21:04:15.674Z,0.09
2024-01-31T21:07:18.178Z,0.04
2024-01-31T21:10:20.566Z,0.12
2024-01-31T21:13:22.952Z,0.12
2024-01-31T21:16:25.135Z,0.07
2024-01-31T21:19:27.833Z,0.03
2024-01-31T21:22:30.101Z,-0.09
2024-01-31T21:25:32.351Z,-0.13
2024-01-31T21:28:34.487Z,-0.18
2024-01-31T21:31:37.357Z,-0.14
2024-01-31T21:34:39.612Z,-0.27
2024-01-31T21:37:41.893Z,-0.31
2024-01-31T21:40:44.357Z,-0.38
2024-01-31T21:43:46.527Z,-0.38
2024-01-31T21:46:48.762Z,-0.29
2024-01-31T21:49:51.121Z,-0.34
2024-01-31T21:52:55.188Z,-0.34
2024-01-31T21:55:57.376Z,-0.31
2024-01-31T21:58:59.905Z,-0.29
2024-01-31T22:02:02.260Z,-0.41
2024-01-31T22:05:04.769Z,-0.37
2024-01-31T22:08:07.215Z,-0.55
2024-01-31T22:11:10.284Z,-0.44
2024-01-31T22:14:12.556Z,-0.49
2024-01-31T22:17:14.806Z,-0.76
2024-01-31T22:20:20.267Z,-0.89
2024-01-31T22:23:22.652Z,-0.56
2024-01-31T22:26:25.509Z,-0.49
2024-01-31T22:29:27.989Z,-0.25
2024-01-31T22:32:30.326Z,-0.31
2024-01-31T22:35:32.676Z,-0.34
2024-01-31T22:38:35.035Z,-0.36
2024-01-31T22:41:37.255Z,-0.18
2024-01-31T22:44:39.429Z,-0.03
2024-01-31T22:47:42.034Z,-0.14
2024-01-31T22:50:47.182Z,-0.22
2024-01-31T22:53:49.390Z,-0.07
2024-01-31T22:56:51.637Z,0.04
2024-01-31T22:59:53.840Z,0.02
2024-01-31T23:02:56.142Z,0.04
2024-01-31T23:05:58.514Z,-0.13
2024-01-31T23:09:00.779Z,-0.04
2024-01-31T23:12:03.065Z,-0.17
2024-01-31T23:15:05.982Z,-0.16
2024-01-31T23:18:08.906Z,-0.20
2024-01-31T23:21:11.391Z,-0.33
2024-01-31T23:24:14.081Z,-0.27
2024-01-31T23:27:16.347Z,-0.23
2024-01-31T23:30:18.677Z,-0.09
2024-01-31T23:33:20.961Z,-0.10
2024-01-31T23:36:23.192Z,-0.17
2024-01-31T23:39:25.309Z,-0.11
2024-01-31T23:42:27.524Z,0.04
2024-01-31T23:45:29.677Z,0.15
2024-01-31T23:48:31.985Z,0.25
2024-01-31T23:51:34.632Z,0.12
2024-01-31T23:54:36.864Z,0.14
2024-01-31T23:57:39.000Z,0.22
